sensor_id;sensor_type;location;lat;lon;timestamp;P1;durP1;ratioP1;P2;durP2;ratioP2
23474;SDS011;11910;52.086;21.066;2023-09-19T00:01:32;15.93;;;14.27;;
23474;SDS011;11910;52.086;21.066;2023-09-19T00:03:58;15.77;;;14.10;;
23474;SDS011;11910;52.086;21.066;2023-09-19T00:06:27;16.95;;;15.25;;
23474;SDS011;11910;52.086;21.066;2023-09-19T00:08:56;16.70;;;15.00;;
23474;SDS011;11910;52.086;21.066;2023-09-19T00:11:23;17.38;;;15.57;;
23474;SDS011;11910;52.086;21.066;2023-09-19T00:13:51;18.92;;;14.45;;
23474;SDS011;11910;52.086;21.066;2023-09-19T00:16:16;16.27;;;14.57;;
23474;SDS011;11910;52.086;21.066;2023-09-19T00:18:44;21.00;;;15.43;;
23474;SDS011;11910;52.086;21.066;2023-09-19T00:21:09;17.45;;;14.82;;
23474;SDS011;11910;52.086;21.066;2023-09-19T00:23:35;16.83;;;13.95;;
23474;SDS011;11910;52.086;21.066;2023-09-19T00:26:00;16.50;;;14.80;;
23474;SDS011;11910;52.086;21.066;2023-09-19T00:28:26;18.95;;;14.85;;
23474;SDS011;11910;52.086;21.066;2023-09-19T00:30:52;16.67;;;14.98;;
23474;SDS011;11910;52.086;21.066;2023-09-19T00:33:20;16.23;;;14.52;;
23474;SDS011;11910;52.086;21.066;2023-09-19T00:35:49;18.40;;;14.77;;
23474;SDS011;11910;52.086;21.066;2023-09-19T00:38:16;17.70;;;15.05;;
23474;SDS011;11910;52.086;21.066;2023-09-19T00:40:46;17.45;;;15.25;;
23474;SDS011;11910;52.086;21.066;2023-09-19T00:43:12;16.65;;;14.85;;
23474;SDS011;11910;52.086;21.066;2023-09-19T00:45:38;17.73;;;14.48;;
23474;SDS011;11910;52.086;21.066;2023-09-19T00:48:07;16.10;;;14.38;;
23474;SDS011;11910;52.086;21.066;2023-09-19T00:50:34;20.08;;;15.95;;
23474;SDS011;11910;52.086;21.066;2023-09-19T00:53:00;18.17;;;14.95;;
23474;SDS011;11910;52.086;21.066;2023-09-19T00:55:26;20.63;;;15.55;;
23474;SDS011;11910;52.086;21.066;2023-09-19T00:57:55;17.67;;;14.30;;
23474;SDS011;11910;52.086;21.066;2023-09-19T01:00:22;19.42;;;16.20;;
23474;SDS011;11910;52.086;21.066;2023-09-19T01:02:48;19.65;;;15.68;;
23474;SDS011;11910;52.086;21.066;2023-09-19T01:05:14;16.80;;;15.00;;
23474;SDS011;11910;52.086;21.066;2023-09-19T01:07:40;18.10;;;15.95;;
23474;SDS011;11910;52.086;21.066;2023-09-19T01:10:07;17.85;;;15.32;;
23474;SDS011;11910;52.086;21.066;2023-09-19T01:12:43;19.30;;;15.60;;
23474;SDS011;11910;52.086;21.066;2023-09-19T01:21:11;18.13;;;15.52;;
23474;SDS011;11910;52.086;21.066;2023-09-19T01:27:23;18.65;;;15.85;;
23474;SDS011;11910;52.086;21.066;2023-09-19T01:30:12;17.15;;;15.45;;
23474;SDS011;11910;52.086;21.066;2023-09-19T01:32:39;17.08;;;15.27;;
23474;SDS011;11910;52.086;21.066;2023-09-19T01:35:06;18.33;;;15.68;;
23474;SDS011;11910;52.086;21.066;2023-09-19T01:37:37;17.63;;;15.83;;
23474;SDS011;11910;52.086;21.066;2023-09-19T01:42:31;17.60;;;15.52;;
23474;SDS011;11910;52.086;21.066;2023-09-19T01:45:13;18.63;;;15.80;;
23474;SDS011;11910;52.086;21.066;2023-09-19T01:47:56;17.52;;;15.63;;
23474;SDS011;11910;52.086;21.066;2023-09-19T01:50:33;19.35;;;16.10;;
23474;SDS011;11910;52.086;21.066;2023-09-19T01:53:25;17.52;;;15.65;;
23474;SDS011;11910;52.086;21.066;2023-09-19T01:55:56;18.33;;;15.20;;
23474;SDS011;11910;52.086;21.066;2023-09-19T01:58:30;17.42;;;15.63;;
23474;SDS011;11910;52.086;21.066;2023-09-19T02:01:00;18.17;;;15.60;;
23474;SDS011;11910;52.086;21.066;2023-09-19T02:03:26;17.77;;;14.40;;
23474;SDS011;11910;52.086;21.066;2023-09-19T02:05:54;17.40;;;15.60;;
23474;SDS011;11910;52.086;21.066;2023-09-19T02:08:20;17.70;;;15.30;;
23474;SDS011;11910;52.086;21.066;2023-09-19T02:10:50;16.67;;;15.00;;
23474;SDS011;11910;52.086;21.066;2023-09-19T02:13:18;19.58;;;15.48;;
23474;SDS011;11910;52.086;21.066;2023-09-19T02:15:45;17.52;;;15.73;;
23474;SDS011;11910;52.086;21.066;2023-09-19T02:18:11;17.60;;;15.70;;
23474;SDS011;11910;52.086;21.066;2023-09-19T02:20:37;21.15;;;15.93;;
23474;SDS011;11910;52.086;21.066;2023-09-19T02:23:04;17.35;;;15.55;;
23474;SDS011;11910;52.086;21.066;2023-09-19T02:25:30;18.60;;;15.30;;
23474;SDS011;11910;52.086;21.066;2023-09-19T02:27:56;17.55;;;15.60;;
23474;SDS011;11910;52.086;21.066;2023-09-19T02:30:23;17.45;;;15.55;;
23474;SDS011;11910;52.086;21.066;2023-09-19T02:32:51;17.45;;;15.35;;
23474;SDS011;11910;52.086;21.066;2023-09-19T02:35:16;19.33;;;16.50;;
23474;SDS011;11910;52.086;21.066;2023-09-19T02:37:44;18.05;;;16.13;;
23474;SDS011;11910;52.086;21.066;2023-09-19T02:40:10;19.65;;;14.98;;
23474;SDS011;11910;52.086;21.066;2023-09-19T02:42:47;17.58;;;15.75;;
23474;SDS011;11910;52.086;21.066;2023-09-19T02:45:16;17.67;;;15.35;;
23474;SDS011;11910;52.086;21.066;2023-09-19T02:47:43;20.08;;;15.90;;
23474;SDS011;11910;52.086;21.066;2023-09-19T02:50:09;18.63;;;16.05;;
23474;SDS011;11910;52.086;21.066;2023-09-19T02:52:38;19.80;;;16.25;;
23474;SDS011;11910;52.086;21.066;2023-09-19T02:55:08;18.10;;;16.20;;
23474;SDS011;11910;52.086;21.066;2023-09-19T02:57:35;18.70;;;16.17;;
23474;SDS011;11910;52.086;21.066;2023-09-19T03:00:05;17.83;;;16.00;;
23474;SDS011;11910;52.086;21.066;2023-09-19T03:02:35;19.52;;;15.82;;
23474;SDS011;11910;52.086;21.066;2023-09-19T03:05:01;20.67;;;16.75;;
23474;SDS011;11910;52.086;21.066;2023-09-19T03:07:28;21.75;;;17.33;;
23474;SDS011;11910;52.086;21.066;2023-09-19T03:09:54;19.10;;;16.48;;
23474;SDS011;11910;52.086;21.066;2023-09-19T03:12:20;20.08;;;15.93;;
23474;SDS011;11910;52.086;21.066;2023-09-19T03:14:45;20.98;;;16.92;;
23474;SDS011;11910;52.086;21.066;2023-09-19T03:17:11;19.20;;;16.25;;
23474;SDS011;11910;52.086;21.066;2023-09-19T03:19:39;19.90;;;17.60;;
23474;SDS011;11910;52.086;21.066;2023-09-19T03:22:04;18.60;;;16.60;;
23474;SDS011;11910;52.086;21.066;2023-09-19T03:24:30;17.48;;;15.60;;
23474;SDS011;11910;52.086;21.066;2023-09-19T03:26:56;19.10;;;15.65;;
23474;SDS011;11910;52.086;21.066;2023-09-19T03:29:22;20.00;;;16.95;;
23474;SDS011;11910;52.086;21.066;2023-09-19T03:31:48;19.70;;;16.00;;
23474;SDS011;11910;52.086;21.066;2023-09-19T03:34:13;20.60;;;15.90;;
23474;SDS011;11910;52.086;21.066;2023-09-19T03:36:39;18.70;;;15.90;;
23474;SDS011;11910;52.086;21.066;2023-09-19T03:39:05;17.98;;;16.05;;
23474;SDS011;11910;52.086;21.066;2023-09-19T03:41:31;19.60;;;15.77;;
23474;SDS011;11910;52.086;21.066;2023-09-19T03:43:58;17.73;;;15.90;;
23474;SDS011;11910;52.086;21.066;2023-09-19T03:46:23;19.80;;;16.63;;
23474;SDS011;11910;52.086;21.066;2023-09-19T03:48:49;19.45;;;16.67;;
23474;SDS011;11910;52.086;21.066;2023-09-19T03:51:15;17.02;;;14.48;;
23474;SDS011;11910;52.086;21.066;2023-09-19T03:53:41;18.33;;;15.55;;
23474;SDS011;11910;52.086;21.066;2023-09-19T03:56:06;19.83;;;16.30;;
23474;SDS011;11910;52.086;21.066;2023-09-19T03:58:33;19.67;;;16.48;;
23474;SDS011;11910;52.086;21.066;2023-09-19T04:01:03;20.90;;;16.38;;
23474;SDS011;11910;52.086;21.066;2023-09-19T04:03:28;18.00;;;15.95;;
23474;SDS011;11910;52.086;21.066;2023-09-19T04:06:00;19.45;;;15.70;;
23474;SDS011;11910;52.086;21.066;2023-09-19T04:08:26;17.35;;;15.20;;
23474;SDS011;11910;52.086;21.066;2023-09-19T04:10:52;17.80;;;15.90;;
23474;SDS011;11910;52.086;21.066;2023-09-19T04:13:18;21.38;;;15.95;;
23474;SDS011;11910;52.086;21.066;2023-09-19T04:15:43;19.70;;;16.02;;
23474;SDS011;11910;52.086;21.066;2023-09-19T04:18:11;18.30;;;15.90;;
23474;SDS011;11910;52.086;21.066;2023-09-19T04:20:37;19.75;;;16.75;;
23474;SDS011;11910;52.086;21.066;2023-09-19T04:23:02;21.65;;;17.42;;
23474;SDS011;11910;52.086;21.066;2023-09-19T04:25:30;17.38;;;15.02;;
23474;SDS011;11910;52.086;21.066;2023-09-19T04:27:55;18.55;;;15.15;;
23474;SDS011;11910;52.086;21.066;2023-09-19T04:30:21;21.10;;;16.08;;
23474;SDS011;11910;52.086;21.066;2023-09-19T04:32:47;19.80;;;16.00;;
23474;SDS011;11910;52.086;21.066;2023-09-19T04:35:15;19.45;;;15.75;;
23474;SDS011;11910;52.086;21.066;2023-09-19T04:37:41;17.88;;;15.65;;
23474;SDS011;11910;52.086;21.066;2023-09-19T04:40:07;17.42;;;15.60;;
23474;SDS011;11910;52.086;21.066;2023-09-19T04:42:37;19.48;;;15.40;;
23474;SDS011;11910;52.086;21.066;2023-09-19T04:45:04;19.35;;;15.25;;
23474;SDS011;11910;52.086;21.066;2023-09-19T04:47:30;18.10;;;14.63;;
23474;SDS011;11910;52.086;21.066;2023-09-19T04:49:55;18.70;;;15.65;;
23474;SDS011;11910;52.086;21.066;2023-09-19T04:52:23;18.50;;;15.73;;
23474;SDS011;11910;52.086;21.066;2023-09-19T04:54:49;17.90;;;15.65;;
23474;SDS011;11910;52.086;21.066;2023-09-19T04:57:15;19.83;;;15.27;;
23474;SDS011;11910;52.086;21.066;2023-09-19T04:59:41;19.23;;;15.38;;
23474;SDS011;11910;52.086;21.066;2023-09-19T05:02:06;19.52;;;15.18;;
23474;SDS011;11910;52.086;21.066;2023-09-19T05:04:33;19.75;;;14.43;;
23474;SDS011;11910;52.086;21.066;2023-09-19T05:06:59;17.00;;;15.20;;
23474;SDS011;11910;52.086;21.066;2023-09-19T05:09:26;19.73;;;14.93;;
23474;SDS011;11910;52.086;21.066;2023-09-19T05:11:51;17.80;;;14.32;;
23474;SDS011;11910;52.086;21.066;2023-09-19T05:14:18;19.63;;;14.65;;
23474;SDS011;11910;52.086;21.066;2023-09-19T05:16:45;17.80;;;14.63;;
23474;SDS011;11910;52.086;21.066;2023-09-19T05:19:11;19.85;;;14.50;;
23474;SDS011;11910;52.086;21.066;2023-09-19T05:21:37;18.02;;;14.70;;
23474;SDS011;11910;52.086;21.066;2023-09-19T05:24:04;18.20;;;15.35;;
23474;SDS011;11910;52.086;21.066;2023-09-19T05:26:31;20.17;;;14.48;;
23474;SDS011;11910;52.086;21.066;2023-09-19T05:29:00;16.35;;;14.57;;
23474;SDS011;11910;52.086;21.066;2023-09-19T05:31:27;17.00;;;13.93;;
23474;SDS011;11910;52.086;21.066;2023-09-19T05:33:52;17.15;;;14.02;;
23474;SDS011;11910;52.086;21.066;2023-09-19T05:36:20;17.65;;;14.02;;
23474;SDS011;11910;52.086;21.066;2023-09-19T05:38:45;16.27;;;14.15;;
23474;SDS011;11910;52.086;21.066;2023-09-19T05:41:14;18.83;;;14.35;;
23474;SDS011;11910;52.086;21.066;2023-09-19T05:43:41;18.52;;;13.98;;
23474;SDS011;11910;52.086;21.066;2023-09-19T05:46:07;17.13;;;13.80;;
23474;SDS011;11910;52.086;21.066;2023-09-19T05:48:33;17.88;;;14.43;;
23474;SDS011;11910;52.086;21.066;2023-09-19T05:50:59;17.33;;;14.43;;
23474;SDS011;11910;52.086;21.066;2023-09-19T05:53:32;16.65;;;13.30;;
23474;SDS011;11910;52.086;21.066;2023-09-19T05:56:00;16.98;;;13.77;;
23474;SDS011;11910;52.086;21.066;2023-09-19T05:58:29;15.88;;;13.90;;
23474;SDS011;11910;52.086;21.066;2023-09-19T06:00:54;15.13;;;13.32;;
23474;SDS011;11910;52.086;21.066;2023-09-19T06:03:22;14.50;;;13.00;;
23474;SDS011;11910;52.086;21.066;2023-09-19T06:05:48;16.95;;;13.40;;
23474;SDS011;11910;52.086;21.066;2023-09-19T06:08:14;14.32;;;12.88;;
23474;SDS011;11910;52.086;21.066;2023-09-19T06:10:40;17.60;;;14.02;;
23474;SDS011;11910;52.086;21.066;2023-09-19T06:13:05;14.98;;;12.70;;
23474;SDS011;11910;52.086;21.066;2023-09-19T06:15:34;15.07;;;13.48;;
23474;SDS011;11910;52.086;21.066;2023-09-19T06:18:01;17.02;;;12.77;;
23474;SDS011;11910;52.086;21.066;2023-09-19T06:20:27;15.68;;;13.23;;
23474;SDS011;11910;52.086;21.066;2023-09-19T06:22:53;17.35;;;12.90;;
23474;SDS011;11910;52.086;21.066;2023-09-19T06:25:19;16.17;;;13.23;;
23474;SDS011;11910;52.086;21.066;2023-09-19T06:27:50;15.50;;;13.02;;
23474;SDS011;11910;52.086;21.066;2023-09-19T06:30:19;13.73;;;12.43;;
23474;SDS011;11910;52.086;21.066;2023-09-19T06:32:49;16.85;;;12.95;;
23474;SDS011;11910;52.086;21.066;2023-09-19T06:35:15;14.52;;;12.45;;
23474;SDS011;11910;52.086;21.066;2023-09-19T06:37:41;15.48;;;12.55;;
23474;SDS011;11910;52.086;21.066;2023-09-19T06:40:11;16.38;;;13.00;;
23474;SDS011;11910;52.086;21.066;2023-09-19T06:42:39;17.17;;;13.40;;
23474;SDS011;11910;52.086;21.066;2023-09-19T06:45:31;14.13;;;12.60;;
23474;SDS011;11910;52.086;21.066;2023-09-19T06:47:57;17.10;;;12.68;;
23474;SDS011;11910;52.086;21.066;2023-09-19T06:50:24;15.23;;;12.77;;
23474;SDS011;11910;52.086;21.066;2023-09-19T06:52:51;16.58;;;12.60;;
23474;SDS011;11910;52.086;21.066;2023-09-19T06:55:19;13.90;;;12.38;;
23474;SDS011;11910;52.086;21.066;2023-09-19T06:57:45;14.07;;;12.63;;
23474;SDS011;11910;52.086;21.066;2023-09-19T07:00:12;14.77;;;12.73;;
23474;SDS011;11910;52.086;21.066;2023-09-19T07:05:30;16.80;;;13.07;;
23474;SDS011;11910;52.086;21.066;2023-09-19T07:07:57;17.25;;;12.10;;
23474;SDS011;11910;52.086;21.066;2023-09-19T07:10:24;14.32;;;12.82;;
23474;SDS011;11910;52.086;21.066;2023-09-19T07:12:55;15.02;;;11.93;;
23474;SDS011;11910;52.086;21.066;2023-09-19T07:15:28;14.73;;;12.20;;
23474;SDS011;11910;52.086;21.066;2023-09-19T07:17:58;16.42;;;12.13;;
23474;SDS011;11910;52.086;21.066;2023-09-19T07:20:26;15.65;;;12.23;;
23474;SDS011;11910;52.086;21.066;2023-09-19T07:22:52;17.90;;;11.80;;
23474;SDS011;11910;52.086;21.066;2023-09-19T07:25:20;19.27;;;12.77;;
23474;SDS011;11910;52.086;21.066;2023-09-19T07:27:46;16.67;;;12.45;;
23474;SDS011;11910;52.086;21.066;2023-09-19T07:30:12;15.18;;;12.10;;
23474;SDS011;11910;52.086;21.066;2023-09-19T07:32:38;16.65;;;12.05;;
23474;SDS011;11910;52.086;21.066;2023-09-19T07:35:05;15.93;;;12.55;;
23474;SDS011;11910;52.086;21.066;2023-09-19T07:37:32;16.77;;;11.82;;
23474;SDS011;11910;52.086;21.066;2023-09-19T07:40:01;17.08;;;11.63;;
23474;SDS011;11910;52.086;21.066;2023-09-19T07:42:36;14.50;;;11.85;;
23474;SDS011;11910;52.086;21.066;2023-09-19T07:45:06;13.13;;;11.38;;
23474;SDS011;11910;52.086;21.066;2023-09-19T07:47:32;13.75;;;12.10;;
23474;SDS011;11910;52.086;21.066;2023-09-19T07:49:59;13.00;;;11.57;;
23474;SDS011;11910;52.086;21.066;2023-09-19T07:52:27;13.18;;;11.82;;
23474;SDS011;11910;52.086;21.066;2023-09-19T07:54:52;13.98;;;12.00;;
23474;SDS011;11910;52.086;21.066;2023-09-19T07:57:18;14.95;;;12.20;;
23474;SDS011;11910;52.086;21.066;2023-09-19T07:59:45;14.00;;;12.52;;
23474;SDS011;11910;52.086;21.066;2023-09-19T08:02:10;16.77;;;12.40;;
23474;SDS011;11910;52.086;21.066;2023-09-19T08:04:44;14.68;;;12.57;;
23474;SDS011;11910;52.086;21.066;2023-09-19T08:07:14;15.55;;;13.00;;
23474;SDS011;11910;52.086;21.066;2023-09-19T08:09:39;18.25;;;12.55;;
23474;SDS011;11910;52.086;21.066;2023-09-19T08:12:06;15.00;;;12.60;;
23474;SDS011;11910;52.086;21.066;2023-09-19T08:14:35;15.45;;;13.00;;
23474;SDS011;11910;52.086;21.066;2023-09-19T08:17:01;17.10;;;13.20;;
23474;SDS011;11910;52.086;21.066;2023-09-19T08:19:27;17.75;;;13.75;;
23474;SDS011;11910;52.086;21.066;2023-09-19T08:21:57;21.88;;;13.50;;
23474;SDS011;11910;52.086;21.066;2023-09-19T08:24:29;17.17;;;14.30;;
23474;SDS011;11910;52.086;21.066;2023-09-19T08:26:55;17.45;;;14.40;;
23474;SDS011;11910;52.086;21.066;2023-09-19T08:29:22;18.17;;;15.10;;
23474;SDS011;11910;52.086;21.066;2023-09-19T08:31:55;22.60;;;16.23;;
23474;SDS011;11910;52.086;21.066;2023-09-19T08:34:22;20.38;;;16.05;;
23474;SDS011;11910;52.086;21.066;2023-09-19T08:36:50;17.92;;;15.90;;
23474;SDS011;11910;52.086;21.066;2023-09-19T08:39:25;18.75;;;16.15;;
23474;SDS011;11910;52.086;21.066;2023-09-19T08:42:00;20.40;;;15.98;;
23474;SDS011;11910;52.086;21.066;2023-09-19T08:44:26;18.35;;;15.63;;
23474;SDS011;11910;52.086;21.066;2023-09-19T08:46:55;17.80;;;15.88;;
23474;SDS011;11910;52.086;21.066;2023-09-19T08:52:02;20.55;;;15.77;;
23474;SDS011;11910;52.086;21.066;2023-09-19T08:54:37;20.65;;;15.98;;
23474;SDS011;11910;52.086;21.066;2023-09-19T08:57:06;20.87;;;14.67;;
23474;SDS011;11910;52.086;21.066;2023-09-19T08:59:39;16.65;;;14.82;;
23474;SDS011;11910;52.086;21.066;2023-09-19T09:02:15;16.60;;;14.95;;
23474;SDS011;11910;52.086;21.066;2023-09-19T09:04:43;19.20;;;14.75;;
23474;SDS011;11910;52.086;21.066;2023-09-19T09:07:11;20.95;;;15.13;;
23474;SDS011;11910;52.086;21.066;2023-09-19T09:09:38;18.92;;;14.82;;
23474;SDS011;11910;52.086;21.066;2023-09-19T09:12:08;19.48;;;14.68;;
23474;SDS011;11910;52.086;21.066;2023-09-19T09:14:38;18.58;;;15.13;;
23474;SDS011;11910;52.086;21.066;2023-09-19T09:17:15;22.23;;;16.08;;
23474;SDS011;11910;52.086;21.066;2023-09-19T09:19:42;20.58;;;15.05;;
23474;SDS011;11910;52.086;21.066;2023-09-19T09:22:08;24.30;;;16.48;;
23474;SDS011;11910;52.086;21.066;2023-09-19T09:24:36;17.55;;;15.50;;
23474;SDS011;11910;52.086;21.066;2023-09-19T09:27:04;16.45;;;14.60;;
23474;SDS011;11910;52.086;21.066;2023-09-19T09:34:48;17.80;;;15.90;;
23474;SDS011;11910;52.086;21.066;2023-09-19T09:37:16;18.63;;;15.15;;
23474;SDS011;11910;52.086;21.066;2023-09-19T09:42:35;16.23;;;12.80;;
23474;SDS011;11910;52.086;21.066;2023-09-19T09:50:57;18.63;;;15.70;;
23474;SDS011;11910;52.086;21.066;2023-09-19T09:53:28;20.92;;;15.95;;
23474;SDS011;11910;52.086;21.066;2023-09-19T09:56:02;20.08;;;14.15;;
23474;SDS011;11910;52.086;21.066;2023-09-19T10:01:13;24.88;;;16.02;;
23474;SDS011;11910;52.086;21.066;2023-09-19T10:03:43;28.10;;;18.98;;
23474;SDS011;11910;52.086;21.066;2023-09-19T10:06:10;22.33;;;16.73;;
23474;SDS011;11910;52.086;21.066;2023-09-19T10:12:00;25.02;;;17.83;;
23474;SDS011;11910;52.086;21.066;2023-09-19T10:14:30;21.67;;;16.52;;
23474;SDS011;11910;52.086;21.066;2023-09-19T10:17:00;19.33;;;15.98;;
23474;SDS011;11910;52.086;21.066;2023-09-19T10:19:30;24.27;;;17.50;;
23474;SDS011;11910;52.086;21.066;2023-09-19T10:22:03;23.48;;;18.13;;
23474;SDS011;11910;52.086;21.066;2023-09-19T10:24:33;24.17;;;18.37;;
23474;SDS011;11910;52.086;21.066;2023-09-19T10:27:02;25.90;;;19.95;;
23474;SDS011;11910;52.086;21.066;2023-09-19T10:29:33;23.83;;;18.67;;
23474;SDS011;11910;52.086;21.066;2023-09-19T10:32:01;27.92;;;21.48;;
23474;SDS011;11910;52.086;21.066;2023-09-19T10:34:31;26.55;;;21.05;;
23474;SDS011;11910;52.086;21.066;2023-09-19T10:37:00;24.13;;;18.13;;
23474;SDS011;11910;52.086;21.066;2023-09-19T10:39:30;39.08;;;25.00;;
23474;SDS011;11910;52.086;21.066;2023-09-19T10:41:57;24.50;;;20.77;;
23474;SDS011;11910;52.086;21.066;2023-09-19T10:44:30;23.90;;;18.17;;
23474;SDS011;11910;52.086;21.066;2023-09-19T10:46:57;21.20;;;18.15;;
23474;SDS011;11910;52.086;21.066;2023-09-19T10:49:23;23.55;;;19.38;;
23474;SDS011;11910;52.086;21.066;2023-09-19T10:51:50;21.63;;;18.05;;
23474;SDS011;11910;52.086;21.066;2023-09-19T10:54:21;23.98;;;19.25;;
23474;SDS011;11910;52.086;21.066;2023-09-19T10:56:51;23.38;;;17.85;;
23474;SDS011;11910;52.086;21.066;2023-09-19T10:59:18;23.30;;;16.52;;
23474;SDS011;11910;52.086;21.066;2023-09-19T11:12:10;22.35;;;14.43;;
23474;SDS011;11910;52.086;21.066;2023-09-19T11:15:00;22.48;;;15.07;;
23474;SDS011;11910;52.086;21.066;2023-09-19T11:17:36;17.88;;;14.73;;
23474;SDS011;11910;52.086;21.066;2023-09-19T11:30:46;15.90;;;12.80;;
23474;SDS011;11910;52.086;21.066;2023-09-19T11:33:22;14.00;;;12.43;;
23474;SDS011;11910;52.086;21.066;2023-09-19T11:46:51;17.73;;;13.18;;
23474;SDS011;11910;52.086;21.066;2023-09-19T11:49:29;13.85;;;11.90;;
23474;SDS011;11910;52.086;21.066;2023-09-19T11:51:58;15.57;;;11.10;;
23474;SDS011;11910;52.086;21.066;2023-09-19T11:54:25;14.68;;;12.10;;
23474;SDS011;11910;52.086;21.066;2023-09-19T11:56:56;14.70;;;11.53;;
23474;SDS011;11910;52.086;21.066;2023-09-19T11:59:23;16.75;;;11.20;;
23474;SDS011;11910;52.086;21.066;2023-09-19T12:01:54;11.93;;;8.50;;
23474;SDS011;11910;52.086;21.066;2023-09-19T12:04:41;11.65;;;8.75;;
23474;SDS011;11910;52.086;21.066;2023-09-19T12:07:13;11.85;;;7.97;;
23474;SDS011;11910;52.086;21.066;2023-09-19T12:09:50;11.38;;;8.13;;
23474;SDS011;11910;52.086;21.066;2023-09-19T12:12:28;12.50;;;7.63;;
23474;SDS011;11910;52.086;21.066;2023-09-19T12:14:55;12.15;;;8.00;;
23474;SDS011;11910;52.086;21.066;2023-09-19T12:17:35;11.40;;;7.35;;
23474;SDS011;11910;52.086;21.066;2023-09-19T12:20:06;10.90;;;7.47;;
23474;SDS011;11910;52.086;21.066;2023-09-19T12:22:39;9.35;;;7.25;;
23474;SDS011;11910;52.086;21.066;2023-09-19T12:25:14;10.00;;;7.35;;
23474;SDS011;11910;52.086;21.066;2023-09-19T12:27:46;9.35;;;6.75;;
23474;SDS011;11910;52.086;21.066;2023-09-19T12:30:13;10.55;;;7.05;;
23474;SDS011;11910;52.086;21.066;2023-09-19T12:32:40;9.68;;;7.75;;
23474;SDS011;11910;52.086;21.066;2023-09-19T12:35:07;9.75;;;7.45;;
23474;SDS011;11910;52.086;21.066;2023-09-19T12:37:35;12.27;;;7.50;;
23474;SDS011;11910;52.086;21.066;2023-09-19T12:40:05;9.15;;;7.50;;
23474;SDS011;11910;52.086;21.066;2023-09-19T12:42:42;10.38;;;7.82;;
23474;SDS011;11910;52.086;21.066;2023-09-19T12:45:09;9.38;;;7.72;;
23474;SDS011;11910;52.086;21.066;2023-09-19T12:47:38;10.30;;;8.02;;
23474;SDS011;11910;52.086;21.066;2023-09-19T12:50:06;10.02;;;7.95;;
23474;SDS011;11910;52.086;21.066;2023-09-19T12:52:39;12.82;;;8.13;;
23474;SDS011;11910;52.086;21.066;2023-09-19T12:55:07;9.82;;;7.65;;
23474;SDS011;11910;52.086;21.066;2023-09-19T12:57:34;11.48;;;7.93;;
23474;SDS011;11910;52.086;21.066;2023-09-19T13:00:01;10.43;;;8.25;;
23474;SDS011;11910;52.086;21.066;2023-09-19T13:02:27;13.70;;;8.43;;
23474;SDS011;11910;52.086;21.066;2023-09-19T13:04:53;13.60;;;8.77;;
23474;SDS011;11910;52.086;21.066;2023-09-19T13:07:39;13.75;;;9.85;;
23474;SDS011;11910;52.086;21.066;2023-09-19T13:10:09;11.93;;;8.13;;
23474;SDS011;11910;52.086;21.066;2023-09-19T13:12:35;13.00;;;8.50;;
23474;SDS011;11910;52.086;21.066;2023-09-19T13:15:12;10.50;;;8.05;;
23474;SDS011;11910;52.086;21.066;2023-09-19T13:17:44;12.77;;;8.10;;
23474;SDS011;11910;52.086;21.066;2023-09-19T13:20:23;10.80;;;8.32;;
23474;SDS011;11910;52.086;21.066;2023-09-19T13:22:57;12.77;;;8.60;;
23474;SDS011;11910;52.086;21.066;2023-09-19T13:25:25;13.00;;;8.57;;
23474;SDS011;11910;52.086;21.066;2023-09-19T13:27:55;20.58;;;9.00;;
23474;SDS011;11910;52.086;21.066;2023-09-19T13:30:31;19.58;;;10.10;;
23474;SDS011;11910;52.086;21.066;2023-09-19T13:33:06;12.73;;;9.93;;
23474;SDS011;11910;52.086;21.066;2023-09-19T13:35:34;14.43;;;10.35;;
23474;SDS011;11910;52.086;21.066;2023-09-19T13:38:01;14.75;;;9.60;;
23474;SDS011;11910;52.086;21.066;2023-09-19T13:40:27;14.70;;;9.35;;
23474;SDS011;11910;52.086;21.066;2023-09-19T13:42:55;12.52;;;9.07;;
23474;SDS011;11910;52.086;21.066;2023-09-19T13:45:21;10.80;;;9.38;;
23474;SDS011;11910;52.086;21.066;2023-09-19T13:47:49;16.23;;;9.50;;
23474;SDS011;11910;52.086;21.066;2023-09-19T13:50:15;17.17;;;10.90;;
23474;SDS011;11910;52.086;21.066;2023-09-19T13:52:42;15.57;;;10.02;;
23474;SDS011;11910;52.086;21.066;2023-09-19T13:55:07;14.43;;;10.20;;
23474;SDS011;11910;52.086;21.066;2023-09-19T13:57:33;16.52;;;10.10;;
23474;SDS011;11910;52.086;21.066;2023-09-19T13:59:59;13.43;;;10.02;;
23474;SDS011;11910;52.086;21.066;2023-09-19T14:02:24;15.68;;;11.25;;
23474;SDS011;11910;52.086;21.066;2023-09-19T14:04:51;15.60;;;11.20;;
23474;SDS011;11910;52.086;21.066;2023-09-19T14:07:17;13.70;;;9.90;;
23474;SDS011;11910;52.086;21.066;2023-09-19T14:09:43;16.17;;;11.15;;
23474;SDS011;11910;52.086;21.066;2023-09-19T14:12:09;14.25;;;11.07;;
23474;SDS011;11910;52.086;21.066;2023-09-19T14:14:35;14.52;;;11.25;;
23474;SDS011;11910;52.086;21.066;2023-09-19T14:17:02;14.05;;;11.40;;
23474;SDS011;11910;52.086;21.066;2023-09-19T14:19:28;17.77;;;12.57;;
23474;SDS011;11910;52.086;21.066;2023-09-19T14:21:53;15.95;;;12.82;;
23474;SDS011;11910;52.086;21.066;2023-09-19T14:24:20;14.27;;;12.77;;
23474;SDS011;11910;52.086;21.066;2023-09-19T14:26:47;13.90;;;12.40;;
23474;SDS011;11910;52.086;21.066;2023-09-19T14:29:14;15.13;;;13.23;;
23474;SDS011;11910;52.086;21.066;2023-09-19T14:31:40;15.40;;;12.95;;
23474;SDS011;11910;52.086;21.066;2023-09-19T14:34:06;14.65;;;12.73;;
23474;SDS011;11910;52.086;21.066;2023-09-19T14:36:35;16.75;;;12.27;;
23474;SDS011;11910;52.086;21.066;2023-09-19T14:39:01;13.27;;;10.18;;
23474;SDS011;11910;52.086;21.066;2023-09-19T14:41:27;11.32;;;10.00;;
23474;SDS011;11910;52.086;21.066;2023-09-19T14:43:53;9.45;;;8.55;;
23474;SDS011;11910;52.086;21.066;2023-09-19T14:46:20;10.77;;;9.68;;
23474;SDS011;11910;52.086;21.066;2023-09-19T14:48:46;10.90;;;9.00;;
23474;SDS011;11910;52.086;21.066;2023-09-19T14:51:14;11.15;;;10.05;;
23474;SDS011;11910;52.086;21.066;2023-09-19T14:53:40;12.55;;;9.73;;
23474;SDS011;11910;52.086;21.066;2023-09-19T14:56:09;10.73;;;8.85;;
23474;SDS011;11910;52.086;21.066;2023-09-19T14:58:36;12.55;;;8.88;;
23474;SDS011;11910;52.086;21.066;2023-09-19T15:01:06;10.02;;;8.95;;
23474;SDS011;11910;52.086;21.066;2023-09-19T15:06:04;16.42;;;11.35;;
23474;SDS011;11910;52.086;21.066;2023-09-19T15:08:31;10.40;;;9.35;;
23474;SDS011;11910;52.086;21.066;2023-09-19T15:10:59;15.25;;;12.63;;
23474;SDS011;11910;52.086;21.066;2023-09-19T15:13:31;16.23;;;12.27;;
23474;SDS011;11910;52.086;21.066;2023-09-19T15:16:01;13.38;;;10.57;;
23474;SDS011;11910;52.086;21.066;2023-09-19T15:18:28;13.70;;;11.68;;
23474;SDS011;11910;52.086;21.066;2023-09-19T15:21:00;15.02;;;12.13;;
23474;SDS011;11910;52.086;21.066;2023-09-19T15:23:26;14.27;;;12.77;;
23474;SDS011;11910;52.086;21.066;2023-09-19T15:25:51;14.65;;;11.20;;
23474;SDS011;11910;52.086;21.066;2023-09-19T15:28:18;16.02;;;12.45;;
23474;SDS011;11910;52.086;21.066;2023-09-19T15:30:48;13.30;;;12.00;;